Cathlamet, WA (98612)

2:58 AM PDT on October 20, 2014 (GMT -0700)
Cathlamet 98612 | Change Station
CLOSE
Current Station
Personal Weather Station
Location: Cathlamet, WA
Elevation: 217 ft
Nearby Weather Stations

Elev 217 ft 46.20 °N, 123.38 °W | Updated 13 minutes ago

Rain
Rain
57.6 °F
Feels Like 57.6 °F
N
0.0
Wind Variable Wind from East

Today
High -- | Low -- °F
--% Chance of Precip.
Yesterday
High -- | Low -- °F
Precip. -- in
7:37 AM 6:17 PM
Waning Crescent, 12% visible
Pressure 29.70 in
Visibility 10.0 miles
Clouds Few 2100 ft
Scattered Clouds 2600 ft
Overcast 4200 ft
Dew Point 57 °F
Humidity 99%
Rainfall 0.14 in
Snow Depth Not available.
UV 0 out of 12
Pollen 1.10 out of 12
Air Quality Not available.
Flu Activity Not available.
SPECI KAST 200950Z AUTO 19008KT 10SM -RA FEW021 SCT026 OVC042 14/13 A2970 RMK AO2 CIG 025 RWY 08 P0002

More Conditions Fewer Conditions

Pressure 29.70 in
Visibility 10.0 miles
Clouds Few 2100 ft
Scattered Clouds 2600 ft
Overcast 4200 ft
Dew Point 57 °F
Humidity 99%
Rainfall 0.14 in
Snow Depth Not available.
UV 0 out of 12
Pollen 1.10 out of 12
Air Quality Not available.
Flu Activity Not available.
SPECI KAST 200950Z AUTO 19008KT 10SM -RA FEW021 SCT026 OVC042 14/13 A2970 RMK AO2 CIG 025 RWY 08 P0002

More Conditions Fewer Conditions

10-Day Weather Forecast

Almanac

Astronomy

Oct. 20, 2014 Rise Set
Actual Time 7:37 AM PDT 6:17 PM PDT
Civil Twilight 7:06 AM PDT 6:48 PM PDT
Nautical Twilight 6:32 AM PDT 7:23 PM PDT
Astronomical Twilight 5:57 AM PDT 7:57 PM PDT
Moon 4:20 AM PDT 4:52 PM PDT
Length of Visible Light 11h 41m
Length of Day
10h 40m
Tomorrow will be 3m 6s shorter.
Waning Crescent, 12% of the Moon is Illuminated
Today
Waning Crescent
Oct 23
New
Oct 30
First Quarter
Nov 6
Full
Nov 14
Last Quarter

Today's Extremes

State Highs State Lows

Community

WunderPhotos

Upload Photos

1,763,325 photos uploaded!

Nearby

Snow Depth

Station Depth Elevation
Swift Creek 0 in 3770 ft
Spirit Lake 0 in 3120 ft
June Lake 0 in 3340 ft
Lone Pine 0 in 3800 ft
Spencer Meadow 0 in 3400 ft

Earthquake Activity

City Distance Mag. Time & Date
No recent earthquake activity has been reported nearby.
Minimum magnitude displayed is 2.5.

Coastal Water Temperatures

Place Temperature
Astoria, OR 62.1 °F
Westport, WA 60.1 °F

Nearby Weather Stations